PWSweather.com
Personal Weather Stations
Station Observations
NORTHPOLE1
Tombur Subdivision, North Pole, AK 99705

Tombur SubdivisionNorth Pole, AK 99705

Lat: 64.774039, Lon: -147.284862

Elevation: 434

Station Type: Davis Vantage Pro 2

http://kl7ac.com

High Low Average
Temperature 48.0°F8.9°C 31.4°F-0.3°C 40.9°F4.9°C
Dew Point 44.5°F6.9°C 29.4°F-1.4°C 38.3°F3.5°C
Winds 10.0 mph 16.1 kmh Calm Calm 2.0 mph ESE3.2 kmh ESE
Wind Gusts 23.0 mph37.0 kmh -- 8.0 mph12.9 kmh
Humidity 97% 67% 91%
Pressure 29.81 in1009.5 mb 29.54 in1000.3 mb -
Precipitation 0.71 in18.0 mm - -
Hour Temp Dew Point Humidity Winds Wind Gusts Pressure Precip Precip Rate Daily Precip Total
12:00 AM 33.9°F1.1°C 31.6°F-0.2°C 91% Calm Calm 3.0 mph4.8 kmh 29.80 in1009.1 mb 0.00 in0.0 mm 0.00 in/hr0.0 mm/hr 0.00 in0.0 mm
12:05 AM 33.9°F1.1°C 31.6°F-0.2°C 91% Calm Calm 2.0 mph3.2 kmh 29.80 in1009.1 mb 0.00 in0.0 mm 0.00 in/hr0.0 mm/hr 0.00 in0.0 mm
12:10 AM 33.9°F1.1°C 31.6°F-0.2°C 91% 1.0 mph NE1.6 kmh NE 3.0 mph4.8 kmh 29.80 in1009.1 mb 0.00 in0.0 mm 0.00 in/hr0.0 mm/hr 0.00 in0.0 mm
12:15 AM 33.8°F1.0°C 31.7°F-0.2°C 92% 1.0 mph NE1.6 kmh NE 3.0 mph4.8 kmh 29.80 in1009.1 mb 0.00 in0.0 mm 0.00 in/hr0.0 mm/hr 0.00 in0.0 mm
12:20 AM 33.8°F1.0°C 31.7°F-0.2°C 92% Calm Calm 3.0 mph4.8 kmh 29.80 in1009.1 mb 0.00 in0.0 mm 0.00 in/hr0.0 mm/hr 0.00 in0.0 mm
12:25 AM 33.8°F1.0°C 31.7°F-0.2°C 92% Calm Calm 2.0 mph3.2 kmh 29.80 in1009.1 mb 0.00 in0.0 mm 0.00 in/hr0.0 mm/hr 0.00 in0.0 mm
12:30 AM 33.9°F1.1°C 31.8°F-0.1°C 92% Calm Calm 2.0 mph3.2 kmh 29.80 in1009.1 mb 0.00 in0.0 mm 0.00 in/hr0.0 mm/hr 0.00 in0.0 mm
12:35 AM 33.9°F1.1°C 31.8°F-0.1°C 92% Calm Calm 2.0 mph3.2 kmh 29.80 in1009.1 mb 0.00 in0.0 mm 0.00 in/hr0.0 mm/hr 0.00 in0.0 mm
12:40 AM 33.9°F1.1°C 31.8°F-0.1°C 92% Calm Calm 2.0 mph3.2 kmh 29.80 in1009.1 mb 0.00 in0.0 mm 0.00 in/hr0.0 mm/hr 0.00 in0.0 mm
12:45 AM 33.8°F1.0°C 31.7°F-0.2°C 92% Calm Calm 1.0 mph1.6 kmh 29.80 in1009.1 mb 0.00 in0.0 mm 0.00 in/hr0.0 mm/hr 0.00 in0.0 mm
12:50 AM 33.8°F1.0°C 31.7°F-0.2°C 92% Calm Calm 2.0 mph3.2 kmh 29.80 in1009.1 mb 0.00 in0.0 mm 0.00 in/hr0.0 mm/hr 0.00 in0.0 mm
12:55 AM 33.9°F1.1°C 31.8°F-0.1°C 92% Calm Calm 2.0 mph3.2 kmh 29.80 in1009.1 mb 0.00 in0.0 mm 0.00 in/hr0.0 mm/hr 0.00 in0.0 mm
01:00 AM 33.9°F1.1°C 32.1°F0.1°C 93% Calm Calm 3.0 mph4.8 kmh 29.80 in1009.1 mb 0.00 in0.0 mm 0.00 in/hr0.0 mm/hr 0.00 in0.0 mm
01:05 AM 33.9°F1.1°C 31.8°F-0.1°C 92% Calm Calm 3.0 mph4.8 kmh 29.80 in1009.1 mb 0.00 in0.0 mm 0.00 in/hr0.0 mm/hr 0.00 in0.0 mm
01:10 AM 33.9°F1.1°C 32.1°F0.1°C 93% Calm Calm 2.0 mph3.2 kmh 29.80 in1009.1 mb 0.00 in0.0 mm 0.00 in/hr0.0 mm/hr 0.00 in0.0 mm
01:15 AM 34.0°F1.1°C 32.2°F0.1°C 93% Calm Calm 2.0 mph3.2 kmh 29.80 in1009.1 mb 0.00 in0.0 mm 0.00 in/hr0.0 mm/hr 0.00 in0.0 mm
01:20 AM 34.0°F1.1°C 32.2°F0.1°C 93% Calm Calm 1.0 mph1.6 kmh 29.80 in1009.1 mb 0.00 in0.0 mm 0.00 in/hr0.0 mm/hr 0.00 in0.0 mm
01:25 AM 34.0°F1.1°C 32.2°F0.1°C 93% Calm Calm 1.0 mph1.6 kmh 29.80 in1009.1 mb 0.00 in0.0 mm 0.00 in/hr0.0 mm/hr 0.00 in0.0 mm
01:30 AM 34.0°F1.1°C 32.2°F0.1°C 93% Calm Calm -- 29.80 in1009.1 mb 0.00 in0.0 mm 0.00 in/hr0.0 mm/hr 0.00 in0.0 mm
01:35 AM 34.1°F1.2°C 32.3°F0.2°C 93% Calm Calm -- 29.80 in1009.1 mb 0.00 in0.0 mm 0.00 in/hr0.0 mm/hr 0.00 in0.0 mm
01:40 AM 34.1°F1.2°C 32.3°F0.2°C 93% Calm Calm 1.0 mph1.6 kmh 29.80 in1009.1 mb 0.00 in0.0 mm 0.00 in/hr0.0 mm/hr 0.00 in0.0 mm
01:45 AM 34.1°F1.2°C 32.3°F0.2°C 93% Calm Calm 2.0 mph3.2 kmh 29.80 in1009.1 mb 0.00 in0.0 mm 0.00 in/hr0.0 mm/hr 0.00 in0.0 mm
01:50 AM 34.1°F1.2°C 32.3°F0.2°C 93% Calm Calm 2.0 mph3.2 kmh 29.80 in1009.1 mb 0.00 in0.0 mm 0.00 in/hr0.0 mm/hr 0.00 in0.0 mm
01:55 AM 34.1°F1.2°C 32.3°F0.2°C 93% Calm Calm -- 29.81 in1009.5 mb 0.00 in0.0 mm 0.00 in/hr0.0 mm/hr 0.00 in0.0 mm
02:00 AM 34.1°F1.2°C 32.3°F0.2°C 93% Calm Calm 1.0 mph1.6 kmh 29.81 in1009.5 mb 0.00 in0.0 mm 0.00 in/hr0.0 mm/hr 0.00 in0.0 mm
02:05 AM 34.1°F1.2°C 32.3°F0.2°C 93% Calm Calm 1.0 mph1.6 kmh 29.81 in1009.5 mb 0.00 in0.0 mm 0.00 in/hr0.0 mm/hr 0.00 in0.0 mm
02:10 AM 34.1°F1.2°C 32.3°F0.2°C 93% Calm Calm -- 29.81 in1009.5 mb 0.00 in0.0 mm 0.00 in/hr0.0 mm/hr 0.00 in0.0 mm
02:15 AM 34.1°F1.2°C 32.3°F0.2°C 93% Calm Calm -- 29.80 in1009.1 mb 0.00 in0.0 mm 0.00 in/hr0.0 mm/hr 0.00 in0.0 mm
02:20 AM 34.1°F1.2°C 32.3°F0.2°C 93% Calm Calm 1.0 mph1.6 kmh 29.80 in1009.1 mb 0.00 in0.0 mm 0.00 in/hr0.0 mm/hr 0.00 in0.0 mm
02:25 AM 34.1°F1.2°C 32.3°F0.2°C 93% Calm Calm 2.0 mph3.2 kmh 29.80 in1009.1 mb 0.00 in0.0 mm 0.00 in/hr0.0 mm/hr 0.00 in0.0 mm
02:30 AM 34.1°F1.2°C 32.3°F0.2°C 93% Calm Calm 2.0 mph3.2 kmh 29.80 in1009.1 mb 0.00 in0.0 mm 0.00 in/hr0.0 mm/hr 0.00 in0.0 mm
02:35 AM 34.1°F1.2°C 32.3°F0.2°C 93% Calm Calm 2.0 mph3.2 kmh 29.80 in1009.1 mb 0.00 in0.0 mm 0.00 in/hr0.0 mm/hr 0.00 in0.0 mm
02:40 AM 34.1°F1.2°C 32.3°F0.2°C 93% Calm Calm -- 29.80 in1009.1 mb 0.00 in0.0 mm 0.00 in/hr0.0 mm/hr 0.00 in0.0 mm
02:45 AM 34.1°F1.2°C 32.3°F0.2°C 93% Calm Calm -- 29.80 in1009.1 mb 0.00 in0.0 mm 0.00 in/hr0.0 mm/hr 0.00 in0.0 mm
02:50 AM 34.2°F1.2°C 32.4°F0.2°C 93% Calm Calm -- 29.80 in1009.1 mb 0.00 in0.0 mm 0.00 in/hr0.0 mm/hr 0.00 in0.0 mm
02:55 AM 34.2°F1.2°C 32.4°F0.2°C 93% Calm Calm -- 29.80 in1009.1 mb 0.00 in0.0 mm 0.00 in/hr0.0 mm/hr 0.00 in0.0 mm
03:00 AM 34.1°F1.2°C 32.3°F0.2°C 93% Calm Calm -- 29.80 in1009.1 mb 0.00 in0.0 mm 0.00 in/hr0.0 mm/hr 0.00 in0.0 mm
03:05 AM 34.2°F1.2°C 32.4°F0.2°C 93% Calm Calm -- 29.80 in1009.1 mb 0.00 in0.0 mm 0.00 in/hr0.0 mm/hr 0.00 in0.0 mm
03:10 AM 34.2°F1.2°C 32.4°F0.2°C 93% Calm Calm 2.0 mph3.2 kmh 29.80 in1009.1 mb 0.00 in0.0 mm 0.00 in/hr0.0 mm/hr 0.00 in0.0 mm
03:15 AM 34.2°F1.2°C 32.4°F0.2°C 93% Calm Calm 2.0 mph3.2 kmh 29.80 in1009.1 mb 0.00 in0.0 mm 0.00 in/hr0.0 mm/hr 0.00 in0.0 mm
03:20 AM 34.2°F1.2°C 32.4°F0.2°C 93% Calm Calm 2.0 mph3.2 kmh 29.80 in1009.1 mb 0.00 in0.0 mm 0.00 in/hr0.0 mm/hr 0.00 in0.0 mm
03:25 AM 34.3°F1.3°C 32.5°F0.3°C 93% Calm Calm 2.0 mph3.2 kmh 29.80 in1009.1 mb 0.00 in0.0 mm 0.00 in/hr0.0 mm/hr 0.00 in0.0 mm
03:30 AM 34.4°F1.3°C 32.9°F0.5°C 94% Calm Calm 2.0 mph3.2 kmh 29.80 in1009.1 mb 0.00 in0.0 mm 0.00 in/hr0.0 mm/hr 0.00 in0.0 mm
03:35 AM 34.4°F1.3°C 32.9°F0.5°C 94% Calm Calm 3.0 mph4.8 kmh 29.80 in1009.1 mb 0.00 in0.0 mm 0.00 in/hr0.0 mm/hr 0.00 in0.0 mm
03:40 AM 34.4°F1.3°C 32.9°F0.5°C 94% Calm Calm 3.0 mph4.8 kmh 29.80 in1009.1 mb 0.00 in0.0 mm 0.00 in/hr0.0 mm/hr 0.00 in0.0 mm
03:45 AM 34.4°F1.3°C 32.9°F0.5°C 94% Calm Calm 2.0 mph3.2 kmh 29.80 in1009.1 mb 0.00 in0.0 mm 0.00 in/hr0.0 mm/hr 0.00 in0.0 mm
03:50 AM 34.4°F1.3°C 32.6°F0.3°C 93% Calm Calm 1.0 mph1.6 kmh 29.80 in1009.1 mb 0.00 in0.0 mm 0.00 in/hr0.0 mm/hr 0.00 in0.0 mm
03:55 AM 34.4°F1.3°C 32.6°F0.3°C 93% Calm Calm 1.0 mph1.6 kmh 29.80 in1009.1 mb 0.00 in0.0 mm 0.00 in/hr0.0 mm/hr 0.00 in0.0 mm
04:00 AM 34.4°F1.3°C 32.6°F0.3°C 93% Calm Calm 1.0 mph1.6 kmh 29.80 in1009.1 mb 0.00 in0.0 mm 0.00 in/hr0.0 mm/hr 0.00 in0.0 mm
04:05 AM 34.4°F1.3°C 32.6°F0.3°C 93% Calm Calm 1.0 mph1.6 kmh 29.80 in1009.1 mb 0.00 in0.0 mm 0.00 in/hr0.0 mm/hr 0.00 in0.0 mm
04:10 AM 34.4°F1.3°C 32.6°F0.3°C 93% Calm Calm 1.0 mph1.6 kmh 29.80 in1009.1 mb 0.00 in0.0 mm 0.00 in/hr0.0 mm/hr 0.00 in0.0 mm
04:15 AM 34.4°F1.3°C 32.6°F0.3°C 93% Calm Calm 1.0 mph1.6 kmh 29.80 in1009.1 mb 0.00 in0.0 mm 0.00 in/hr0.0 mm/hr 0.00 in0.0 mm
04:20 AM 34.4°F1.3°C 32.6°F0.3°C 93% Calm Calm 1.0 mph1.6 kmh 29.80 in1009.1 mb 0.00 in0.0 mm 0.00 in/hr0.0 mm/hr 0.00 in0.0 mm
04:25 AM 34.4°F1.3°C 32.6°F0.3°C 93% Calm Calm -- 29.79 in1008.8 mb 0.00 in0.0 mm 0.00 in/hr0.0 mm/hr 0.00 in0.0 mm
04:30 AM 34.4°F1.3°C 32.6°F0.3°C 93% Calm Calm -- 29.79 in1008.8 mb 0.00 in0.0 mm 0.00 in/hr0.0 mm/hr 0.00 in0.0 mm
04:35 AM 34.4°F1.3°C 32.6°F0.3°C 93% Calm Calm 1.0 mph1.6 kmh 29.79 in1008.8 mb 0.00 in0.0 mm 0.00 in/hr0.0 mm/hr 0.00 in0.0 mm
04:40 AM 34.4°F1.3°C 32.6°F0.3°C 93% Calm Calm 1.0 mph1.6 kmh 29.79 in1008.8 mb 0.00 in0.0 mm 0.00 in/hr0.0 mm/hr 0.00 in0.0 mm
04:45 AM 34.4°F1.3°C 32.6°F0.3°C 93% Calm Calm -- 29.79 in1008.8 mb 0.00 in0.0 mm 0.00 in/hr0.0 mm/hr 0.00 in0.0 mm
04:50 AM 34.3°F1.3°C 32.5°F0.3°C 93% Calm Calm 1.0 mph1.6 kmh 29.79 in1008.8 mb 0.00 in0.0 mm 0.00 in/hr0.0 mm/hr 0.00 in0.0 mm
04:55 AM 34.1°F1.2°C 32.3°F0.2°C 93% Calm Calm 1.0 mph1.6 kmh 29.79 in1008.8 mb 0.00 in0.0 mm 0.00 in/hr0.0 mm/hr 0.00 in0.0 mm
05:00 AM 34.0°F1.1°C 31.9°F-0.1°C 92% Calm Calm 2.0 mph3.2 kmh 29.79 in1008.8 mb 0.00 in0.0 mm 0.00 in/hr0.0 mm/hr 0.00 in0.0 mm
05:05 AM 33.7°F0.9°C 31.6°F-0.2°C 92% Calm Calm 2.0 mph3.2 kmh 29.79 in1008.8 mb 0.00 in0.0 mm 0.00 in/hr0.0 mm/hr 0.00 in0.0 mm
05:10 AM 33.4°F0.8°C 31.3°F-0.4°C 92% Calm Calm 2.0 mph3.2 kmh 29.79 in1008.8 mb 0.00 in0.0 mm 0.00 in/hr0.0 mm/hr 0.00 in0.0 mm
05:15 AM 33.2°F0.7°C 31.1°F-0.5°C 92% Calm Calm 2.0 mph3.2 kmh 29.79 in1008.8 mb 0.00 in0.0 mm 0.00 in/hr0.0 mm/hr 0.00 in0.0 mm
05:20 AM 33.0°F0.6°C 30.9°F-0.6°C 92% Calm Calm 2.0 mph3.2 kmh 29.79 in1008.8 mb 0.00 in0.0 mm 0.00 in/hr0.0 mm/hr 0.00 in0.0 mm
05:25 AM 32.8°F0.4°C 30.7°F-0.7°C 92% Calm Calm 2.0 mph3.2 kmh 29.79 in1008.8 mb 0.00 in0.0 mm 0.00 in/hr0.0 mm/hr 0.00 in0.0 mm
05:30 AM 32.5°F0.3°C 30.4°F-0.9°C 92% Calm Calm 2.0 mph3.2 kmh 29.79 in1008.8 mb 0.00 in0.0 mm 0.00 in/hr0.0 mm/hr 0.00 in0.0 mm
05:35 AM 32.3°F0.2°C 30.2°F-1.0°C 92% Calm Calm 2.0 mph3.2 kmh 29.79 in1008.8 mb 0.00 in0.0 mm 0.00 in/hr0.0 mm/hr 0.00 in0.0 mm
05:40 AM 32.1°F0.1°C 30.0°F-1.1°C 92% Calm Calm 1.0 mph1.6 kmh 29.79 in1008.8 mb 0.00 in0.0 mm 0.00 in/hr0.0 mm/hr 0.00 in0.0 mm
05:45 AM 31.9°F-0.1°C 29.8°F-1.2°C 92% Calm Calm 1.0 mph1.6 kmh 29.79 in1008.8 mb 0.00 in0.0 mm 0.00 in/hr0.0 mm/hr 0.00 in0.0 mm
05:50 AM 31.7°F-0.2°C 29.6°F-1.3°C 92% Calm Calm 2.0 mph3.2 kmh 29.79 in1008.8 mb 0.00 in0.0 mm 0.00 in/hr0.0 mm/hr 0.00 in0.0 mm
05:55 AM 31.6°F-0.2°C 29.5°F-1.4°C 92% Calm Calm 2.0 mph3.2 kmh 29.79 in1008.8 mb 0.00 in0.0 mm 0.00 in/hr0.0 mm/hr 0.00 in0.0 mm
06:00 AM 31.5°F-0.3°C 29.4°F-1.4°C 92% Calm Calm 2.0 mph3.2 kmh 29.79 in1008.8 mb 0.00 in0.0 mm 0.00 in/hr0.0 mm/hr 0.00 in0.0 mm
06:05 AM 31.4°F-0.3°C 29.6°F-1.3°C 93% Calm Calm 2.0 mph3.2 kmh 29.79 in1008.8 mb 0.00 in0.0 mm 0.00 in/hr0.0 mm/hr 0.00 in0.0 mm
06:10 AM 31.4°F-0.3°C 29.6°F-1.3°C 93% Calm Calm 2.0 mph3.2 kmh 29.79 in1008.8 mb 0.00 in0.0 mm 0.00 in/hr0.0 mm/hr 0.00 in0.0 mm
06:15 AM 31.4°F-0.3°C 29.6°F-1.3°C 93% Calm Calm 3.0 mph4.8 kmh 29.79 in1008.8 mb 0.00 in0.0 mm 0.00 in/hr0.0 mm/hr 0.00 in0.0 mm
06:20 AM 31.4°F-0.3°C 29.6°F-1.3°C 93% Calm Calm 3.0 mph4.8 kmh 29.79 in1008.8 mb 0.00 in0.0 mm 0.00 in/hr0.0 mm/hr 0.00 in0.0 mm
06:25 AM 31.4°F-0.3°C 29.6°F-1.3°C 93% Calm Calm 3.0 mph4.8 kmh 29.79 in1008.8 mb 0.00 in0.0 mm 0.00 in/hr0.0 mm/hr 0.00 in0.0 mm
06:30 AM 31.5°F-0.3°C 29.7°F-1.3°C 93% Calm Calm 3.0 mph4.8 kmh 29.79 in1008.8 mb 0.00 in0.0 mm 0.00 in/hr0.0 mm/hr 0.00 in0.0 mm
06:35 AM 31.5°F-0.3°C 29.7°F-1.3°C 93% Calm Calm 2.0 mph3.2 kmh 29.79 in1008.8 mb 0.00 in0.0 mm 0.00 in/hr0.0 mm/hr 0.00 in0.0 mm
06:40 AM 31.6°F-0.2°C 29.8°F-1.2°C 93% Calm Calm 2.0 mph3.2 kmh 29.79 in1008.8 mb 0.00 in0.0 mm 0.00 in/hr0.0 mm/hr 0.00 in0.0 mm
06:45 AM 31.8°F-0.1°C 30.3°F-0.9°C 94% Calm Calm 2.0 mph3.2 kmh 29.79 in1008.8 mb 0.00 in0.0 mm 0.00 in/hr0.0 mm/hr 0.00 in0.0 mm
06:50 AM 32.0°F0.0°C 30.5°F-0.8°C 94% Calm Calm 2.0 mph3.2 kmh 29.79 in1008.8 mb 0.00 in0.0 mm 0.00 in/hr0.0 mm/hr 0.00 in0.0 mm
06:55 AM 32.3°F0.2°C 30.8°F-0.7°C 94% Calm Calm 1.0 mph1.6 kmh 29.79 in1008.8 mb 0.00 in0.0 mm 0.00 in/hr0.0 mm/hr 0.00 in0.0 mm
07:00 AM 32.5°F0.3°C 31.0°F-0.6°C 94% Calm Calm 1.0 mph1.6 kmh 29.79 in1008.8 mb 0.00 in0.0 mm 0.00 in/hr0.0 mm/hr 0.00 in0.0 mm
07:05 AM 32.6°F0.3°C 31.1°F-0.5°C 94% Calm Calm -- 29.79 in1008.8 mb 0.00 in0.0 mm 0.00 in/hr0.0 mm/hr 0.00 in0.0 mm
07:10 AM 32.8°F0.4°C 31.3°F-0.4°C 94% Calm Calm -- 29.79 in1008.8 mb 0.00 in0.0 mm 0.00 in/hr0.0 mm/hr 0.00 in0.0 mm
07:15 AM 33.0°F0.6°C 31.5°F-0.3°C 94% Calm Calm -- 29.79 in1008.8 mb 0.00 in0.0 mm 0.00 in/hr0.0 mm/hr 0.00 in0.0 mm
07:20 AM 33.2°F0.7°C 31.9°F-0.1°C 95% Calm Calm -- 29.79 in1008.8 mb 0.00 in0.0 mm 0.00 in/hr0.0 mm/hr 0.00 in0.0 mm
07:25 AM 33.3°F0.7°C 32.0°F0.0°C 95% Calm Calm -- 29.79 in1008.8 mb 0.00 in0.0 mm 0.00 in/hr0.0 mm/hr 0.00 in0.0 mm
07:30 AM 33.5°F0.8°C 32.2°F0.1°C 95% Calm Calm -- 29.79 in1008.8 mb 0.00 in0.0 mm 0.00 in/hr0.0 mm/hr 0.00 in0.0 mm
07:35 AM 33.7°F0.9°C 32.4°F0.2°C 95% Calm Calm 1.0 mph1.6 kmh 29.78 in1008.5 mb 0.00 in0.0 mm 0.00 in/hr0.0 mm/hr 0.00 in0.0 mm
07:40 AM 33.8°F1.0°C 32.5°F0.3°C 95% Calm Calm 1.0 mph1.6 kmh 29.78 in1008.5 mb 0.00 in0.0 mm 0.00 in/hr0.0 mm/hr 0.00 in0.0 mm
07:45 AM 34.0°F1.1°C 32.7°F0.4°C 95% Calm Calm 2.0 mph3.2 kmh 29.78 in1008.5 mb 0.00 in0.0 mm 0.00 in/hr0.0 mm/hr 0.00 in0.0 mm
07:50 AM 34.3°F1.3°C 33.0°F0.6°C 95% Calm Calm 2.0 mph3.2 kmh 29.78 in1008.5 mb 0.00 in0.0 mm 0.00 in/hr0.0 mm/hr 0.00 in0.0 mm
07:55 AM 34.4°F1.3°C 33.1°F0.6°C 95% 1.0 mph NE1.6 kmh NE 3.0 mph4.8 kmh 29.78 in1008.5 mb 0.00 in0.0 mm 0.00 in/hr0.0 mm/hr 0.00 in0.0 mm
08:00 AM 35.1°F1.7°C 33.8°F1.0°C 95% 1.0 mph NE1.6 kmh NE 3.0 mph4.8 kmh 29.78 in1008.5 mb 0.00 in0.0 mm 0.00 in/hr0.0 mm/hr 0.00 in0.0 mm
08:05 AM 35.6°F2.0°C 34.3°F1.3°C 95% 1.0 mph NE1.6 kmh NE 3.0 mph4.8 kmh 29.77 in1008.1 mb 0.00 in0.0 mm 0.00 in/hr0.0 mm/hr 0.00 in0.0 mm
08:10 AM 36.2°F2.3°C 34.9°F1.6°C 95% 1.0 mph NE1.6 kmh NE 3.0 mph4.8 kmh 29.77 in1008.1 mb 0.00 in0.0 mm 0.00 in/hr0.0 mm/hr 0.00 in0.0 mm
08:15 AM 36.7°F2.6°C 35.4°F1.9°C 95% 1.0 mph NE1.6 kmh NE 3.0 mph4.8 kmh 29.77 in1008.1 mb 0.00 in0.0 mm 0.00 in/hr0.0 mm/hr 0.00 in0.0 mm
08:20 AM 37.1°F2.8°C 35.8°F2.1°C 95% 1.0 mph ENE1.6 kmh ENE 3.0 mph4.8 kmh 29.77 in1008.1 mb 0.00 in0.0 mm 0.00 in/hr0.0 mm/hr 0.00 in0.0 mm
08:25 AM 37.6°F3.1°C 36.0°F2.2°C 94% Calm Calm 2.0 mph3.2 kmh 29.77 in1008.1 mb 0.00 in0.0 mm 0.00 in/hr0.0 mm/hr 0.00 in0.0 mm
08:30 AM 38.0°F3.3°C 36.2°F2.3°C 93% Calm Calm 2.0 mph3.2 kmh 29.77 in1008.1 mb 0.00 in0.0 mm 0.00 in/hr0.0 mm/hr 0.00 in0.0 mm
08:35 AM 38.4°F3.6°C 36.0°F2.2°C 91% Calm Calm 3.0 mph4.8 kmh 29.77 in1008.1 mb 0.00 in0.0 mm 0.00 in/hr0.0 mm/hr 0.00 in0.0 mm
08:40 AM 38.8°F3.8°C 36.1°F2.3°C 90% Calm Calm 3.0 mph4.8 kmh 29.76 in1007.8 mb 0.00 in0.0 mm 0.00 in/hr0.0 mm/hr 0.00 in0.0 mm
08:45 AM 39.2°F4.0°C 36.2°F2.3°C 89% Calm Calm 2.0 mph3.2 kmh 29.76 in1007.8 mb 0.00 in0.0 mm 0.00 in/hr0.0 mm/hr 0.00 in0.0 mm
08:50 AM 39.5°F4.2°C 36.5°F2.5°C 89% Calm Calm 2.0 mph3.2 kmh 29.76 in1007.8 mb 0.00 in0.0 mm 0.00 in/hr0.0 mm/hr 0.00 in0.0 mm
08:55 AM 39.8°F4.3°C 36.5°F2.5°C 88% Calm Calm 2.0 mph3.2 kmh 29.76 in1007.8 mb 0.00 in0.0 mm 0.00 in/hr0.0 mm/hr 0.00 in0.0 mm
09:00 AM 40.2°F4.6°C 36.6°F2.6°C 87% Calm Calm 3.0 mph4.8 kmh 29.76 in1007.8 mb 0.00 in0.0 mm 0.00 in/hr0.0 mm/hr 0.00 in0.0 mm
09:05 AM 40.5°F4.7°C 36.9°F2.7°C 87% Calm Calm 3.0 mph4.8 kmh 29.76 in1007.8 mb 0.00 in0.0 mm 0.00 in/hr0.0 mm/hr 0.00 in0.0 mm
09:10 AM 40.9°F4.9°C 37.0°F2.8°C 86% Calm Calm 3.0 mph4.8 kmh 29.75 in1007.5 mb 0.00 in0.0 mm 0.00 in/hr0.0 mm/hr 0.00 in0.0 mm
09:15 AM 41.2°F5.1°C 37.3°F2.9°C 86% 1.0 mph ESE1.6 kmh ESE 3.0 mph4.8 kmh 29.75 in1007.5 mb 0.00 in0.0 mm 0.00 in/hr0.0 mm/hr 0.00 in0.0 mm
09:20 AM 41.5°F5.3°C 37.6°F3.1°C 86% Calm Calm 3.0 mph4.8 kmh 29.75 in1007.5 mb 0.00 in0.0 mm 0.00 in/hr0.0 mm/hr 0.00 in0.0 mm
09:25 AM 41.9°F5.5°C 38.0°F3.3°C 86% Calm Calm 5.0 mph8.0 kmh 29.75 in1007.5 mb 0.00 in0.0 mm 0.00 in/hr0.0 mm/hr 0.00 in0.0 mm
09:30 AM 42.3°F5.7°C 38.4°F3.6°C 86% 1.0 mph SE1.6 kmh SE 5.0 mph8.0 kmh 29.75 in1007.5 mb 0.00 in0.0 mm 0.00 in/hr0.0 mm/hr 0.00 in0.0 mm
09:35 AM 42.7°F5.9°C 38.2°F3.4°C 84% 2.0 mph SE3.2 kmh SE 7.0 mph11.3 kmh 29.74 in1007.1 mb 0.00 in0.0 mm 0.00 in/hr0.0 mm/hr 0.00 in0.0 mm
09:40 AM 43.1°F6.2°C 38.3°F3.5°C 83% 1.0 mph SE1.6 kmh SE 7.0 mph11.3 kmh 29.74 in1007.1 mb 0.00 in0.0 mm 0.00 in/hr0.0 mm/hr 0.00 in0.0 mm
09:45 AM 43.6°F6.4°C 37.5°F3.1°C 79% 1.0 mph SE1.6 kmh SE 6.0 mph9.7 kmh 29.74 in1007.1 mb 0.00 in0.0 mm 0.00 in/hr0.0 mm/hr 0.00 in0.0 mm
09:50 AM 44.0°F6.7°C 37.9°F3.3°C 79% 1.0 mph SE1.6 kmh SE 6.0 mph9.7 kmh 29.74 in1007.1 mb 0.00 in0.0 mm 0.00 in/hr0.0 mm/hr 0.00 in0.0 mm
09:55 AM 44.4°F6.9°C 38.0°F3.3°C 78% 2.0 mph SE3.2 kmh SE 6.0 mph9.7 kmh 29.74 in1007.1 mb 0.00 in0.0 mm 0.00 in/hr0.0 mm/hr 0.00 in0.0 mm
10:00 AM 44.7°F7.1°C 37.9°F3.3°C 77% 2.0 mph SE3.2 kmh SE 6.0 mph9.7 kmh 29.74 in1007.1 mb 0.00 in0.0 mm 0.00 in/hr0.0 mm/hr 0.00 in0.0 mm
10:05 AM 45.0°F7.2°C 37.9°F3.3°C 76% 1.0 mph SE1.6 kmh SE 6.0 mph9.7 kmh 29.74 in1007.1 mb 0.00 in0.0 mm 0.00 in/hr0.0 mm/hr 0.00 in0.0 mm
10:10 AM 45.3°F7.4°C 37.8°F3.2°C 75% 1.0 mph SSE1.6 kmh SSE 7.0 mph11.3 kmh 29.74 in1007.1 mb 0.00 in0.0 mm 0.00 in/hr0.0 mm/hr 0.00 in0.0 mm
10:15 AM 45.6°F7.6°C 38.5°F3.6°C 76% 2.0 mph SE3.2 kmh SE 7.0 mph11.3 kmh 29.73 in1006.8 mb 0.00 in0.0 mm 0.00 in/hr0.0 mm/hr 0.00 in0.0 mm
10:20 AM 45.8°F7.7°C 37.6°F3.1°C 73% 2.0 mph SSE3.2 kmh SSE 6.0 mph9.7 kmh 29.73 in1006.8 mb 0.00 in0.0 mm 0.00 in/hr0.0 mm/hr 0.00 in0.0 mm
10:25 AM 45.9°F7.7°C 37.4°F3.0°C 72% 2.0 mph SSE3.2 kmh SSE 7.0 mph11.3 kmh 29.73 in1006.8 mb 0.00 in0.0 mm 0.00 in/hr0.0 mm/hr 0.00 in0.0 mm
10:30 AM 46.0°F7.8°C 37.1°F2.8°C 71% 3.0 mph SSE4.8 kmh SSE 12.0 mph19.3 kmh 29.73 in1006.8 mb 0.00 in0.0 mm 0.00 in/hr0.0 mm/hr 0.00 in0.0 mm
10:35 AM 46.1°F7.8°C 37.6°F3.1°C 72% 3.0 mph SSE4.8 kmh SSE 12.0 mph19.3 kmh 29.73 in1006.8 mb 0.00 in0.0 mm 0.00 in/hr0.0 mm/hr 0.00 in0.0 mm
10:40 AM 46.1°F7.8°C 37.9°F3.3°C 73% 1.0 mph SSE1.6 kmh SSE 7.0 mph11.3 kmh 29.73 in1006.8 mb 0.00 in0.0 mm 0.00 in/hr0.0 mm/hr 0.00 in0.0 mm
10:45 AM 46.3°F7.9°C 38.1°F3.4°C 73% 2.0 mph SE3.2 kmh SE 8.0 mph12.9 kmh 29.72 in1006.4 mb 0.00 in0.0 mm 0.00 in/hr0.0 mm/hr 0.00 in0.0 mm
10:50 AM 46.4°F8.0°C 37.1°F2.8°C 70% 3.0 mph SE4.8 kmh SE 8.0 mph12.9 kmh 29.72 in1006.4 mb 0.00 in0.0 mm 0.00 in/hr0.0 mm/hr 0.00 in0.0 mm
10:55 AM 46.5°F8.1°C 37.2°F2.9°C 70% 3.0 mph SSE4.8 kmh SSE 8.0 mph12.9 kmh 29.72 in1006.4 mb 0.00 in0.0 mm 0.00 in/hr0.0 mm/hr 0.00 in0.0 mm
11:00 AM 46.6°F8.1°C 38.4°F3.6°C 73% 3.0 mph SSE4.8 kmh SSE 10.0 mph16.1 kmh 29.72 in1006.4 mb 0.00 in0.0 mm 0.00 in/hr0.0 mm/hr 0.00 in0.0 mm
11:05 AM 46.7°F8.2°C 38.1°F3.4°C 72% 3.0 mph SE4.8 kmh SE 10.0 mph16.1 kmh 29.71 in1006.1 mb 0.00 in0.0 mm 0.00 in/hr0.0 mm/hr 0.00 in0.0 mm
11:10 AM 46.7°F8.2°C 37.8°F3.2°C 71% 3.0 mph SE4.8 kmh SE 10.0 mph16.1 kmh 29.71 in1006.1 mb 0.00 in0.0 mm 0.00 in/hr0.0 mm/hr 0.00 in0.0 mm
11:15 AM 46.9°F8.3°C 38.3°F3.5°C 72% 2.0 mph SE3.2 kmh SE 9.0 mph14.5 kmh 29.71 in1006.1 mb 0.00 in0.0 mm 0.00 in/hr0.0 mm/hr 0.00 in0.0 mm
11:20 AM 47.0°F8.3°C 38.1°F3.4°C 71% 2.0 mph SSE3.2 kmh SSE 7.0 mph11.3 kmh 29.71 in1006.1 mb 0.00 in0.0 mm 0.00 in/hr0.0 mm/hr 0.00 in0.0 mm
11:25 AM 47.0°F8.3°C 37.7°F3.2°C 70% 3.0 mph SSE4.8 kmh SSE 10.0 mph16.1 kmh 29.71 in1006.1 mb 0.00 in0.0 mm 0.00 in/hr0.0 mm/hr 0.00 in0.0 mm
11:30 AM 47.0°F8.3°C 38.1°F3.4°C 71% 2.0 mph SSE3.2 kmh SSE 10.0 mph16.1 kmh 29.71 in1006.1 mb 0.00 in0.0 mm 0.00 in/hr0.0 mm/hr 0.00 in0.0 mm
11:35 AM 47.2°F8.4°C 38.3°F3.5°C 71% 1.0 mph SSE1.6 kmh SSE 6.0 mph9.7 kmh 29.71 in1006.1 mb 0.00 in0.0 mm 0.00 in/hr0.0 mm/hr 0.00 in0.0 mm
11:40 AM 47.3°F8.5°C 38.4°F3.6°C 71% 1.0 mph S1.6 kmh S 6.0 mph9.7 kmh 29.71 in1006.1 mb 0.00 in0.0 mm 0.00 in/hr0.0 mm/hr 0.00 in0.0 mm
11:45 AM 47.4°F8.6°C 37.7°F3.2°C 69% 2.0 mph S3.2 kmh S 10.0 mph16.1 kmh 29.71 in1006.1 mb 0.00 in0.0 mm 0.00 in/hr0.0 mm/hr 0.00 in0.0 mm
11:50 AM 47.5°F8.6°C 37.8°F3.2°C 69% 3.0 mph S4.8 kmh S 10.0 mph16.1 kmh 29.70 in1005.8 mb 0.00 in0.0 mm 0.00 in/hr0.0 mm/hr 0.00 in0.0 mm
11:55 AM 47.6°F8.7°C 37.6°F3.1°C 68% 2.0 mph S3.2 kmh S 7.0 mph11.3 kmh 29.70 in1005.8 mb 0.00 in0.0 mm 0.00 in/hr0.0 mm/hr 0.00 in0.0 mm
12:00 PM 47.7°F8.7°C 37.3°F2.9°C 67% 4.0 mph SSW6.4 kmh SSW 11.0 mph17.7 kmh 29.70 in1005.8 mb 0.00 in0.0 mm 0.00 in/hr0.0 mm/hr 0.00 in0.0 mm
12:05 PM 47.8°F8.8°C 37.7°F3.2°C 68% 4.0 mph SSW6.4 kmh SSW 11.0 mph17.7 kmh 29.70 in1005.8 mb 0.00 in0.0 mm 0.00 in/hr0.0 mm/hr 0.00 in0.0 mm
12:10 PM 48.0°F8.9°C 37.9°F3.3°C 68% 3.0 mph SSW4.8 kmh SSW 13.0 mph20.9 kmh 29.70 in1005.8 mb 0.00 in0.0 mm 0.00 in/hr0.0 mm/hr 0.00 in0.0 mm
12:15 PM 47.9°F8.8°C 38.6°F3.7°C 70% 5.0 mph SW8.0 kmh SW 17.0 mph27.4 kmh 29.70 in1005.8 mb 0.00 in0.0 mm 0.00 in/hr0.0 mm/hr 0.00 in0.0 mm
12:20 PM 47.8°F8.8°C 39.9°F4.4°C 74% 5.0 mph SW8.0 kmh SW 17.0 mph27.4 kmh 29.70 in1005.8 mb 0.00 in0.0 mm 0.00 in/hr0.0 mm/hr 0.00 in0.0 mm
12:25 PM 47.4°F8.6°C 39.2°F4.0°C 73% 3.0 mph SW4.8 kmh SW 12.0 mph19.3 kmh 29.70 in1005.8 mb 0.00 in0.0 mm 0.00 in/hr0.0 mm/hr 0.00 in0.0 mm
12:30 PM 47.1°F8.4°C 39.2°F4.0°C 74% 3.0 mph SSW4.8 kmh SSW 11.0 mph17.7 kmh 29.70 in1005.8 mb 0.00 in0.0 mm 0.00 in/hr0.0 mm/hr 0.00 in0.0 mm
12:35 PM 46.8°F8.2°C 40.0°F4.4°C 77% 4.0 mph SW6.4 kmh SW 12.0 mph19.3 kmh 29.70 in1005.8 mb 0.00 in0.0 mm 0.00 in/hr0.0 mm/hr 0.00 in0.0 mm
12:40 PM 46.4°F8.0°C 39.9°F4.4°C 78% 5.0 mph SSW8.0 kmh SSW 12.0 mph19.3 kmh 29.70 in1005.8 mb 0.01 in0.3 mm 0.12 in/hr3.0 mm/hr 0.01 in0.3 mm
12:45 PM 46.0°F7.8°C 40.2°F4.6°C 80% 4.0 mph SSW6.4 kmh SSW 12.0 mph19.3 kmh 29.70 in1005.8 mb 0.01 in0.3 mm 0.00 in/hr0.0 mm/hr 0.01 in0.3 mm
12:50 PM 45.6°F7.6°C 39.8°F4.3°C 80% 4.0 mph S6.4 kmh S 10.0 mph16.1 kmh 29.70 in1005.8 mb 0.01 in0.3 mm 0.00 in/hr0.0 mm/hr 0.01 in0.3 mm
12:55 PM 45.1°F7.3°C 40.2°F4.6°C 83% 4.0 mph S6.4 kmh S 10.0 mph16.1 kmh 29.70 in1005.8 mb 0.01 in0.3 mm 0.00 in/hr0.0 mm/hr 0.01 in0.3 mm
01:00 PM 45.0°F7.2°C 40.8°F4.9°C 85% 2.0 mph S3.2 kmh S 10.0 mph16.1 kmh 29.70 in1005.8 mb 0.01 in0.3 mm 0.00 in/hr0.0 mm/hr 0.01 in0.3 mm
01:05 PM 44.8°F7.1°C 40.9°F4.9°C 86% 2.0 mph SSE3.2 kmh SSE 6.0 mph9.7 kmh 29.70 in1005.8 mb 0.01 in0.3 mm 0.00 in/hr0.0 mm/hr 0.01 in0.3 mm
01:10 PM 44.7°F7.1°C 41.1°F5.1°C 87% 2.0 mph SSE3.2 kmh SSE 7.0 mph11.3 kmh 29.70 in1005.8 mb 0.01 in0.3 mm 0.00 in/hr0.0 mm/hr 0.01 in0.3 mm
01:15 PM 44.7°F7.1°C 41.1°F5.1°C 87% 2.0 mph SE3.2 kmh SE 7.0 mph11.3 kmh 29.69 in1005.4 mb 0.01 in0.3 mm 0.00 in/hr0.0 mm/hr 0.01 in0.3 mm
01:20 PM 44.6°F7.0°C 41.0°F5.0°C 87% 1.0 mph SSE1.6 kmh SSE 6.0 mph9.7 kmh 29.69 in1005.4 mb 0.02 in0.5 mm 0.12 in/hr3.0 mm/hr 0.02 in0.5 mm
01:25 PM 44.7°F7.1°C 41.7°F5.4°C 89% 1.0 mph SSE1.6 kmh SSE 10.0 mph16.1 kmh 29.69 in1005.4 mb 0.02 in0.5 mm 0.00 in/hr0.0 mm/hr 0.02 in0.5 mm
01:30 PM 44.5°F6.9°C 41.2°F5.1°C 88% 2.0 mph SSE3.2 kmh SSE 10.0 mph16.1 kmh 29.69 in1005.4 mb 0.02 in0.5 mm 0.00 in/hr0.0 mm/hr 0.02 in0.5 mm
01:35 PM 44.4°F6.9°C 41.1°F5.1°C 88% 3.0 mph SSE4.8 kmh SSE 11.0 mph17.7 kmh 29.69 in1005.4 mb 0.03 in0.8 mm 0.12 in/hr3.0 mm/hr 0.03 in0.8 mm
01:40 PM 44.2°F6.8°C 41.2°F5.1°C 89% 3.0 mph SSE4.8 kmh SSE 11.0 mph17.7 kmh 29.68 in1005.1 mb 0.02 in0.5 mm 0.00 in/hr0.0 mm/hr 0.03 in0.8 mm
01:45 PM 44.2°F6.8°C 41.5°F5.3°C 90% 2.0 mph SSE3.2 kmh SSE 7.0 mph11.3 kmh 29.68 in1005.1 mb 0.02 in0.5 mm 0.00 in/hr0.0 mm/hr 0.03 in0.8 mm
01:50 PM 44.2°F6.8°C 41.5°F5.3°C 90% 1.0 mph SE1.6 kmh SE 4.0 mph6.4 kmh 29.68 in1005.1 mb 0.03 in0.8 mm 0.12 in/hr3.0 mm/hr 0.04 in1.0 mm
01:55 PM 44.3°F6.8°C 41.8°F5.4°C 91% 1.0 mph S1.6 kmh S 4.0 mph6.4 kmh 29.68 in1005.1 mb 0.03 in0.8 mm 0.00 in/hr0.0 mm/hr 0.04 in1.0 mm
02:00 PM 44.3°F6.8°C 41.8°F5.4°C 91% 1.0 mph S1.6 kmh S 4.0 mph6.4 kmh 29.68 in1005.1 mb 0.03 in0.8 mm 0.00 in/hr0.0 mm/hr 0.04 in1.0 mm
02:05 PM 44.3°F6.8°C 42.1°F5.6°C 92% 1.0 mph S1.6 kmh S 5.0 mph8.0 kmh 29.68 in1005.1 mb 0.03 in0.8 mm 0.00 in/hr0.0 mm/hr 0.04 in1.0 mm
02:10 PM 44.5°F6.9°C 42.3°F5.7°C 92% 1.0 mph SSW1.6 kmh SSW 5.0 mph8.0 kmh 29.68 in1005.1 mb 0.03 in0.8 mm 0.00 in/hr0.0 mm/hr 0.04 in1.0 mm
02:15 PM 44.5°F6.9°C 42.3°F5.7°C 92% 1.0 mph SSW1.6 kmh SSW 3.0 mph4.8 kmh 29.68 in1005.1 mb 0.03 in0.8 mm 0.00 in/hr0.0 mm/hr 0.04 in1.0 mm
02:20 PM 44.6°F7.0°C 42.4°F5.8°C 92% 1.0 mph SSW1.6 kmh SSW 7.0 mph11.3 kmh 29.68 in1005.1 mb 0.02 in0.5 mm 0.00 in/hr0.0 mm/hr 0.04 in1.0 mm
02:25 PM 44.7°F7.1°C 42.5°F5.8°C 92% 3.0 mph SW4.8 kmh SW 15.0 mph24.1 kmh 29.67 in1004.7 mb 0.02 in0.5 mm 0.00 in/hr0.0 mm/hr 0.04 in1.0 mm
02:30 PM 44.9°F7.2°C 42.7°F5.9°C 92% 4.0 mph SW6.4 kmh SW 15.0 mph24.1 kmh 29.67 in1004.7 mb 0.02 in0.5 mm 0.00 in/hr0.0 mm/hr 0.04 in1.0 mm
02:35 PM 45.0°F7.2°C 42.5°F5.8°C 91% 4.0 mph SSW6.4 kmh SSW 14.0 mph22.5 kmh 29.67 in1004.7 mb 0.02 in0.5 mm 0.00 in/hr0.0 mm/hr 0.05 in1.3 mm
02:40 PM 45.0°F7.2°C 42.5°F5.8°C 91% 3.0 mph SSW4.8 kmh SSW 14.0 mph22.5 kmh 29.67 in1004.7 mb 0.02 in0.5 mm 0.00 in/hr0.0 mm/hr 0.05 in1.3 mm
02:45 PM 45.0°F7.2°C 42.5°F5.8°C 91% 3.0 mph SSW4.8 kmh SSW 12.0 mph19.3 kmh 29.67 in1004.7 mb 0.02 in0.5 mm 0.00 in/hr0.0 mm/hr 0.05 in1.3 mm
02:50 PM 45.0°F7.2°C 42.5°F5.8°C 91% 3.0 mph SSW4.8 kmh SSW 11.0 mph17.7 kmh 29.67 in1004.7 mb 0.02 in0.5 mm 0.00 in/hr0.0 mm/hr 0.06 in1.5 mm
02:55 PM 45.0°F7.2°C 42.8°F6.0°C 92% 3.0 mph S4.8 kmh S 11.0 mph17.7 kmh 29.67 in1004.7 mb 0.02 in0.5 mm 0.00 in/hr0.0 mm/hr 0.06 in1.5 mm
03:00 PM 44.9°F7.2°C 42.4°F5.8°C 91% 4.0 mph S6.4 kmh S 15.0 mph24.1 kmh 29.67 in1004.7 mb 0.02 in0.5 mm 0.00 in/hr0.0 mm/hr 0.06 in1.5 mm
03:05 PM 44.9°F7.2°C 42.4°F5.8°C 91% 4.0 mph SSW6.4 kmh SSW 15.0 mph24.1 kmh 29.66 in1004.4 mb 0.03 in0.8 mm 0.12 in/hr3.0 mm/hr 0.07 in1.8 mm
03:10 PM 44.9°F7.2°C 42.4°F5.8°C 91% 4.0 mph S6.4 kmh S 11.0 mph17.7 kmh 29.66 in1004.4 mb 0.04 in1.0 mm 0.12 in/hr3.0 mm/hr 0.08 in2.0 mm
03:15 PM 44.9°F7.2°C 42.7°F5.9°C 92% 4.0 mph SSW6.4 kmh SSW 11.0 mph17.7 kmh 29.66 in1004.4 mb 0.04 in1.0 mm 0.00 in/hr0.0 mm/hr 0.08 in2.0 mm
03:20 PM 44.8°F7.1°C 42.6°F5.9°C 92% 3.0 mph S4.8 kmh S 10.0 mph16.1 kmh 29.66 in1004.4 mb 0.05 in1.3 mm 0.12 in/hr3.0 mm/hr 0.09 in2.3 mm
03:25 PM 44.8°F7.1°C 42.9°F6.1°C 93% 3.0 mph S4.8 kmh S 9.0 mph14.5 kmh 29.66 in1004.4 mb 0.05 in1.3 mm 0.00 in/hr0.0 mm/hr 0.09 in2.3 mm
03:30 PM 44.7°F7.1°C 42.8°F6.0°C 93% 3.0 mph S4.8 kmh S 12.0 mph19.3 kmh 29.66 in1004.4 mb 0.06 in1.5 mm 0.12 in/hr3.0 mm/hr 0.10 in2.5 mm
03:35 PM 44.7°F7.1°C 42.8°F6.0°C 93% 4.0 mph S6.4 kmh S 15.0 mph24.1 kmh 29.66 in1004.4 mb 0.05 in1.3 mm 0.00 in/hr0.0 mm/hr 0.10 in2.5 mm
03:40 PM 44.8°F7.1°C 43.2°F6.2°C 94% 3.0 mph S4.8 kmh S 15.0 mph24.1 kmh 29.65 in1004.1 mb 0.06 in1.5 mm 0.12 in/hr3.0 mm/hr 0.11 in2.8 mm
03:45 PM 44.9°F7.2°C 43.3°F6.3°C 94% 3.0 mph SSE4.8 kmh SSE 10.0 mph16.1 kmh 29.65 in1004.1 mb 0.07 in1.8 mm 0.12 in/hr3.0 mm/hr 0.12 in3.0 mm
03:50 PM 44.9°F7.2°C 43.3°F6.3°C 94% 4.0 mph SSE6.4 kmh SSE 11.0 mph17.7 kmh 29.64 in1003.7 mb 0.06 in1.5 mm 0.00 in/hr0.0 mm/hr 0.12 in3.0 mm
03:55 PM 44.9°F7.2°C 43.3°F6.3°C 94% 4.0 mph SSE6.4 kmh SSE 12.0 mph19.3 kmh 29.64 in1003.7 mb 0.07 in1.8 mm 0.12 in/hr3.0 mm/hr 0.13 in3.3 mm
04:00 PM 44.8°F7.1°C 43.2°F6.2°C 94% 4.0 mph SSE6.4 kmh SSE 13.0 mph20.9 kmh 29.63 in1003.4 mb 0.08 in2.0 mm 0.01 in/hr0.3 mm/hr 0.14 in3.6 mm
04:05 PM 44.7°F7.1°C 43.1°F6.2°C 94% 5.0 mph SSE8.0 kmh SSE 13.0 mph20.9 kmh 29.63 in1003.4 mb 0.07 in1.8 mm 0.00 in/hr0.0 mm/hr 0.14 in3.6 mm
04:10 PM 44.6°F7.0°C 43.0°F6.1°C 94% 4.0 mph S6.4 kmh S 13.0 mph20.9 kmh 29.62 in1003.0 mb 0.06 in1.5 mm 0.00 in/hr0.0 mm/hr 0.14 in3.6 mm
04:15 PM 44.6°F7.0°C 43.0°F6.1°C 94% 5.0 mph S8.0 kmh S 13.0 mph20.9 kmh 29.62 in1003.0 mb 0.07 in1.8 mm 0.12 in/hr3.0 mm/hr 0.15 in3.8 mm
04:20 PM 44.5°F6.9°C 42.9°F6.1°C 94% 5.0 mph S8.0 kmh S 12.0 mph19.3 kmh 29.62 in1003.0 mb 0.07 in1.8 mm 0.00 in/hr0.0 mm/hr 0.16 in4.1 mm
04:25 PM 44.6°F7.0°C 43.3°F6.3°C 95% 4.0 mph S6.4 kmh S 13.0 mph20.9 kmh 29.62 in1003.0 mb 0.07 in1.8 mm 0.00 in/hr0.0 mm/hr 0.16 in4.1 mm
04:30 PM 44.6°F7.0°C 43.3°F6.3°C 95% 5.0 mph S8.0 kmh S 14.0 mph22.5 kmh 29.62 in1003.0 mb 0.07 in1.8 mm 0.00 in/hr0.0 mm/hr 0.17 in4.3 mm
04:35 PM 44.6°F7.0°C 43.3°F6.3°C 95% 5.0 mph S8.0 kmh S 14.0 mph22.5 kmh 29.62 in1003.0 mb 0.06 in1.5 mm 0.00 in/hr0.0 mm/hr 0.17 in4.3 mm
04:40 PM 44.7°F7.1°C 43.4°F6.3°C 95% 4.0 mph S6.4 kmh S 12.0 mph19.3 kmh 29.62 in1003.0 mb 0.07 in1.8 mm 0.12 in/hr3.0 mm/hr 0.18 in4.6 mm
04:45 PM 44.7°F7.1°C 43.4°F6.3°C 95% 3.0 mph S4.8 kmh S 10.0 mph16.1 kmh 29.62 in1003.0 mb 0.06 in1.5 mm 0.00 in/hr0.0 mm/hr 0.18 in4.6 mm
04:50 PM 44.7°F7.1°C 43.4°F6.3°C 95% 3.0 mph S4.8 kmh S 10.0 mph16.1 kmh 29.62 in1003.0 mb 0.07 in1.8 mm 0.12 in/hr3.0 mm/hr 0.19 in4.8 mm
04:55 PM 44.7°F7.1°C 43.4°F6.3°C 95% 3.0 mph S4.8 kmh S 13.0 mph20.9 kmh 29.62 in1003.0 mb 0.06 in1.5 mm 0.00 in/hr0.0 mm/hr 0.19 in4.8 mm
05:00 PM 44.7°F7.1°C 43.4°F6.3°C 95% 3.0 mph S4.8 kmh S 13.0 mph20.9 kmh 29.61 in1002.7 mb 0.06 in1.5 mm 0.00 in/hr0.0 mm/hr 0.20 in5.1 mm
05:05 PM 44.7°F7.1°C 43.4°F6.3°C 95% 2.0 mph S3.2 kmh S 11.0 mph17.7 kmh 29.61 in1002.7 mb 0.07 in1.8 mm 0.12 in/hr3.0 mm/hr 0.21 in5.3 mm
05:10 PM 44.8°F7.1°C 43.5°F6.4°C 95% 3.0 mph SSE4.8 kmh SSE 11.0 mph17.7 kmh 29.61 in1002.7 mb 0.07 in1.8 mm 0.00 in/hr0.0 mm/hr 0.21 in5.3 mm
05:15 PM 44.7°F7.1°C 43.4°F6.3°C 95% 3.0 mph S4.8 kmh S 12.0 mph19.3 kmh 29.61 in1002.7 mb 0.07 in1.8 mm 0.00 in/hr0.0 mm/hr 0.22 in5.6 mm
05:20 PM 44.7°F7.1°C 43.4°F6.3°C 95% 3.0 mph S4.8 kmh S 12.0 mph19.3 kmh 29.61 in1002.7 mb 0.07 in1.8 mm 0.00 in/hr0.0 mm/hr 0.23 in5.8 mm
05:25 PM 44.8°F7.1°C 43.5°F6.4°C 95% 3.0 mph S4.8 kmh S 12.0 mph19.3 kmh 29.61 in1002.7 mb 0.08 in2.0 mm 0.12 in/hr3.0 mm/hr 0.24 in6.1 mm
05:30 PM 44.8°F7.1°C 43.7°F6.5°C 96% 3.0 mph S4.8 kmh S 12.0 mph19.3 kmh 29.61 in1002.7 mb 0.08 in2.0 mm 0.00 in/hr0.0 mm/hr 0.25 in6.4 mm
05:35 PM 44.8°F7.1°C 43.7°F6.5°C 96% 3.0 mph S4.8 kmh S 11.0 mph17.7 kmh 29.60 in1002.4 mb 0.08 in2.0 mm 0.00 in/hr0.0 mm/hr 0.25 in6.4 mm
05:40 PM 44.9°F7.2°C 43.8°F6.6°C 96% 3.0 mph SSE4.8 kmh SSE 11.0 mph17.7 kmh 29.60 in1002.4 mb 0.08 in2.0 mm 0.00 in/hr0.0 mm/hr 0.26 in6.6 mm
05:45 PM 45.0°F7.2°C 43.9°F6.6°C 96% 4.0 mph SSE6.4 kmh SSE 11.0 mph17.7 kmh 29.60 in1002.4 mb 0.08 in2.0 mm 0.00 in/hr0.0 mm/hr 0.26 in6.6 mm
05:50 PM 45.0°F7.2°C 43.9°F6.6°C 96% 4.0 mph S6.4 kmh S 11.0 mph17.7 kmh 29.60 in1002.4 mb 0.08 in2.0 mm 0.00 in/hr0.0 mm/hr 0.27 in6.9 mm
05:55 PM 45.0°F7.2°C 43.9°F6.6°C 96% 3.0 mph S4.8 kmh S 10.0 mph16.1 kmh 29.60 in1002.4 mb 0.08 in2.0 mm 0.00 in/hr0.0 mm/hr 0.27 in6.9 mm
06:00 PM 45.0°F7.2°C 43.9°F6.6°C 96% 3.0 mph S4.8 kmh S 10.0 mph16.1 kmh 29.59 in1002.0 mb 0.07 in1.8 mm 0.00 in/hr0.0 mm/hr 0.27 in6.9 mm
06:05 PM 45.0°F7.2°C 43.9°F6.6°C 96% 4.0 mph S6.4 kmh S 9.0 mph14.5 kmh 29.60 in1002.4 mb 0.07 in1.8 mm 0.00 in/hr0.0 mm/hr 0.28 in7.1 mm
06:10 PM 45.0°F7.2°C 43.9°F6.6°C 96% 3.0 mph S4.8 kmh S 10.0 mph16.1 kmh 29.59 in1002.0 mb 0.06 in1.5 mm 0.00 in/hr0.0 mm/hr 0.28 in7.1 mm
06:15 PM 45.0°F7.2°C 43.9°F6.6°C 96% 3.0 mph S4.8 kmh S 10.0 mph16.1 kmh 29.59 in1002.0 mb 0.07 in1.8 mm 0.12 in/hr3.0 mm/hr 0.29 in7.4 mm
06:20 PM 45.0°F7.2°C 43.9°F6.6°C 96% 3.0 mph S4.8 kmh S 9.0 mph14.5 kmh 29.59 in1002.0 mb 0.06 in1.5 mm 0.00 in/hr0.0 mm/hr 0.29 in7.4 mm
06:25 PM 45.0°F7.2°C 43.9°F6.6°C 96% 3.0 mph S4.8 kmh S 8.0 mph12.9 kmh 29.59 in1002.0 mb 0.06 in1.5 mm 0.00 in/hr0.0 mm/hr 0.30 in7.6 mm
06:30 PM 45.0°F7.2°C 43.9°F6.6°C 96% 3.0 mph S4.8 kmh S 10.0 mph16.1 kmh 29.59 in1002.0 mb 0.06 in1.5 mm 0.00 in/hr0.0 mm/hr 0.31 in7.9 mm
06:35 PM 45.0°F7.2°C 43.9°F6.6°C 96% 3.0 mph S4.8 kmh S 11.0 mph17.7 kmh 29.59 in1002.0 mb 0.07 in1.8 mm 0.12 in/hr3.0 mm/hr 0.32 in8.1 mm
06:40 PM 45.0°F7.2°C 43.9°F6.6°C 96% 3.0 mph S4.8 kmh S 11.0 mph17.7 kmh 29.59 in1002.0 mb 0.06 in1.5 mm 0.00 in/hr0.0 mm/hr 0.32 in8.1 mm
06:45 PM 45.0°F7.2°C 43.9°F6.6°C 96% 4.0 mph S6.4 kmh S 11.0 mph17.7 kmh 29.59 in1002.0 mb 0.07 in1.8 mm 0.12 in/hr3.0 mm/hr 0.33 in8.4 mm
06:50 PM 45.0°F7.2°C 43.9°F6.6°C 96% 4.0 mph S6.4 kmh S 14.0 mph22.5 kmh 29.59 in1002.0 mb 0.07 in1.8 mm 0.00 in/hr0.0 mm/hr 0.34 in8.6 mm
06:55 PM 45.0°F7.2°C 43.9°F6.6°C 96% 4.0 mph S6.4 kmh S 14.0 mph22.5 kmh 29.58 in1001.7 mb 0.08 in2.0 mm 0.12 in/hr3.0 mm/hr 0.35 in8.9 mm
07:00 PM 45.0°F7.2°C 43.9°F6.6°C 96% 3.0 mph S4.8 kmh S 9.0 mph14.5 kmh 29.58 in1001.7 mb 0.09 in2.3 mm 0.01 in/hr0.3 mm/hr 0.36 in9.1 mm
07:05 PM 45.0°F7.2°C 43.9°F6.6°C 96% 4.0 mph S6.4 kmh S 14.0 mph22.5 kmh 29.58 in1001.7 mb 0.09 in2.3 mm 0.00 in/hr0.0 mm/hr 0.37 in9.4 mm
07:10 PM 45.0°F7.2°C 43.9°F6.6°C 96% 5.0 mph SSW8.0 kmh SSW 14.0 mph22.5 kmh 29.58 in1001.7 mb 0.10 in2.5 mm 0.12 in/hr3.0 mm/hr 0.38 in9.7 mm
07:15 PM 45.0°F7.2°C 43.9°F6.6°C 96% 5.0 mph SSW8.0 kmh SSW 13.0 mph20.9 kmh 29.58 in1001.7 mb 0.10 in2.5 mm 0.00 in/hr0.0 mm/hr 0.39 in9.9 mm
07:20 PM 45.0°F7.2°C 43.9°F6.6°C 96% 6.0 mph SSW9.7 kmh SSW 14.0 mph22.5 kmh 29.58 in1001.7 mb 0.11 in2.8 mm 0.12 in/hr3.0 mm/hr 0.40 in10.2 mm
07:25 PM 45.0°F7.2°C 43.9°F6.6°C 96% 5.0 mph SSW8.0 kmh SSW 14.0 mph22.5 kmh 29.58 in1001.7 mb 0.10 in2.5 mm 0.00 in/hr0.0 mm/hr 0.40 in10.2 mm
07:30 PM 45.0°F7.2°C 43.9°F6.6°C 96% 4.0 mph S6.4 kmh S 13.0 mph20.9 kmh 29.58 in1001.7 mb 0.10 in2.5 mm 0.00 in/hr0.0 mm/hr 0.41 in10.4 mm
07:35 PM 45.0°F7.2°C 43.9°F6.6°C 96% 4.0 mph S6.4 kmh S 14.0 mph22.5 kmh 29.57 in1001.4 mb 0.09 in2.3 mm 0.00 in/hr0.0 mm/hr 0.41 in10.4 mm
07:40 PM 45.0°F7.2°C 43.9°F6.6°C 96% 3.0 mph S4.8 kmh S 14.0 mph22.5 kmh 29.57 in1001.4 mb 0.08 in2.0 mm 0.00 in/hr0.0 mm/hr 0.41 in10.4 mm
07:45 PM 45.0°F7.2°C 43.9°F6.6°C 96% 3.0 mph S4.8 kmh S 9.0 mph14.5 kmh 29.57 in1001.4 mb 0.08 in2.0 mm 0.00 in/hr0.0 mm/hr 0.42 in10.7 mm
07:50 PM 45.0°F7.2°C 43.9°F6.6°C 96% 3.0 mph SSE4.8 kmh SSE 9.0 mph14.5 kmh 29.57 in1001.4 mb 0.09 in2.3 mm 0.12 in/hr3.0 mm/hr 0.43 in10.9 mm
07:55 PM 45.0°F7.2°C 43.9°F6.6°C 96% 3.0 mph SSE4.8 kmh SSE 9.0 mph14.5 kmh 29.57 in1001.4 mb 0.08 in2.0 mm 0.00 in/hr0.0 mm/hr 0.43 in10.9 mm
08:00 PM 45.0°F7.2°C 43.9°F6.6°C 96% 2.0 mph S3.2 kmh S 9.0 mph14.5 kmh 29.57 in1001.4 mb 0.08 in2.0 mm 0.00 in/hr0.0 mm/hr 0.44 in11.2 mm
08:05 PM 45.0°F7.2°C 43.9°F6.6°C 96% 3.0 mph S4.8 kmh S 12.0 mph19.3 kmh 29.56 in1001.0 mb 0.08 in2.0 mm 0.00 in/hr0.0 mm/hr 0.45 in11.4 mm
08:10 PM 44.9°F7.2°C 43.8°F6.6°C 96% 3.0 mph S4.8 kmh S 12.0 mph19.3 kmh 29.57 in1001.4 mb 0.08 in2.0 mm 0.00 in/hr0.0 mm/hr 0.46 in11.7 mm
08:15 PM 44.9°F7.2°C 43.8°F6.6°C 96% 3.0 mph S4.8 kmh S 10.0 mph16.1 kmh 29.56 in1001.0 mb 0.08 in2.0 mm 0.00 in/hr0.0 mm/hr 0.47 in11.9 mm
08:20 PM 44.9°F7.2°C 43.8°F6.6°C 96% 3.0 mph S4.8 kmh S 12.0 mph19.3 kmh 29.57 in1001.4 mb 0.07 in1.8 mm 0.00 in/hr0.0 mm/hr 0.47 in11.9 mm
08:25 PM 44.9°F7.2°C 43.8°F6.6°C 96% 5.0 mph S8.0 kmh S 15.0 mph24.1 kmh 29.56 in1001.0 mb 0.08 in2.0 mm 0.12 in/hr3.0 mm/hr 0.48 in12.2 mm
08:30 PM 44.9°F7.2°C 43.8°F6.6°C 96% 6.0 mph S9.7 kmh S 16.0 mph25.7 kmh 29.56 in1001.0 mb 0.08 in2.0 mm 0.00 in/hr0.0 mm/hr 0.49 in12.4 mm
08:35 PM 44.9°F7.2°C 43.8°F6.6°C 96% 5.0 mph S8.0 kmh S 16.0 mph25.7 kmh 29.56 in1001.0 mb 0.08 in2.0 mm 0.00 in/hr0.0 mm/hr 0.49 in12.4 mm
08:40 PM 44.9°F7.2°C 43.8°F6.6°C 96% 5.0 mph SSW8.0 kmh SSW 16.0 mph25.7 kmh 29.56 in1001.0 mb 0.09 in2.3 mm 0.12 in/hr3.0 mm/hr 0.50 in12.7 mm
08:45 PM 45.0°F7.2°C 43.9°F6.6°C 96% 6.0 mph SSW9.7 kmh SSW 15.0 mph24.1 kmh 29.56 in1001.0 mb 0.09 in2.3 mm 0.00 in/hr0.0 mm/hr 0.51 in13.0 mm
08:50 PM 45.0°F7.2°C 43.9°F6.6°C 96% 6.0 mph SSW9.7 kmh SSW 14.0 mph22.5 kmh 29.56 in1001.0 mb 0.09 in2.3 mm 0.00 in/hr0.0 mm/hr 0.52 in13.2 mm
08:55 PM 45.0°F7.2°C 43.9°F6.6°C 96% 5.0 mph SSW8.0 kmh SSW 14.0 mph22.5 kmh 29.56 in1001.0 mb 0.09 in2.3 mm 0.00 in/hr0.0 mm/hr 0.52 in13.2 mm
09:00 PM 45.0°F7.2°C 43.9°F6.6°C 96% 5.0 mph SSW8.0 kmh SSW 13.0 mph20.9 kmh 29.56 in1001.0 mb 0.09 in2.3 mm 0.00 in/hr0.0 mm/hr 0.53 in13.5 mm
09:05 PM 45.0°F7.2°C 43.9°F6.6°C 96% 5.0 mph SSW8.0 kmh SSW 14.0 mph22.5 kmh 29.56 in1001.0 mb 0.08 in2.0 mm 0.00 in/hr0.0 mm/hr 0.53 in13.5 mm
09:10 PM 45.0°F7.2°C 43.9°F6.6°C 96% 5.0 mph SSW8.0 kmh SSW 14.0 mph22.5 kmh 29.56 in1001.0 mb 0.07 in1.8 mm 0.00 in/hr0.0 mm/hr 0.53 in13.5 mm
09:15 PM 45.0°F7.2°C 43.9°F6.6°C 96% 6.0 mph SSW9.7 kmh SSW 15.0 mph24.1 kmh 29.56 in1001.0 mb 0.07 in1.8 mm 0.00 in/hr0.0 mm/hr 0.54 in13.7 mm
09:20 PM 45.0°F7.2°C 43.9°F6.6°C 96% 7.0 mph SSW11.3 kmh SSW 15.0 mph24.1 kmh 29.56 in1001.0 mb 0.07 in1.8 mm 0.00 in/hr0.0 mm/hr 0.54 in13.7 mm
09:25 PM 45.0°F7.2°C 43.9°F6.6°C 96% 7.0 mph SSW11.3 kmh SSW 19.0 mph30.6 kmh 29.56 in1001.0 mb 0.07 in1.8 mm 0.00 in/hr0.0 mm/hr 0.55 in14.0 mm
09:30 PM 45.0°F7.2°C 43.9°F6.6°C 96% 6.0 mph SSW9.7 kmh SSW 19.0 mph30.6 kmh 29.56 in1001.0 mb 0.07 in1.8 mm 0.00 in/hr0.0 mm/hr 0.56 in14.2 mm
09:35 PM 45.0°F7.2°C 43.9°F6.6°C 96% 7.0 mph SSW11.3 kmh SSW 18.0 mph29.0 kmh 29.56 in1001.0 mb 0.08 in2.0 mm 0.12 in/hr3.0 mm/hr 0.57 in14.5 mm
09:40 PM 45.0°F7.2°C 43.9°F6.6°C 96% 7.0 mph SSW11.3 kmh SSW 16.0 mph25.7 kmh 29.56 in1001.0 mb 0.08 in2.0 mm 0.00 in/hr0.0 mm/hr 0.58 in14.7 mm
09:45 PM 45.0°F7.2°C 43.9°F6.6°C 96% 6.0 mph SSW9.7 kmh SSW 16.0 mph25.7 kmh 29.56 in1001.0 mb 0.08 in2.0 mm 0.00 in/hr0.0 mm/hr 0.59 in15.0 mm
09:50 PM 45.0°F7.2°C 43.9°F6.6°C 96% 6.0 mph SSW9.7 kmh SSW 19.0 mph30.6 kmh 29.56 in1001.0 mb 0.08 in2.0 mm 0.00 in/hr0.0 mm/hr 0.60 in15.2 mm
09:55 PM 45.0°F7.2°C 43.9°F6.6°C 96% 6.0 mph SSW9.7 kmh SSW 19.0 mph30.6 kmh 29.56 in1001.0 mb 0.09 in2.3 mm 0.12 in/hr3.0 mm/hr 0.61 in15.5 mm
10:00 PM 45.0°F7.2°C 43.9°F6.6°C 96% 6.0 mph SSW9.7 kmh SSW 16.0 mph25.7 kmh 29.56 in1001.0 mb 0.09 in2.3 mm 0.00 in/hr0.0 mm/hr 0.62 in15.7 mm
10:05 PM 45.0°F7.2°C 43.9°F6.6°C 96% 6.0 mph SSW9.7 kmh SSW 17.0 mph27.4 kmh 29.55 in1000.7 mb 0.09 in2.3 mm 0.00 in/hr0.0 mm/hr 0.62 in15.7 mm
10:10 PM 45.0°F7.2°C 43.9°F6.6°C 96% 5.0 mph SSW8.0 kmh SSW 17.0 mph27.4 kmh 29.55 in1000.7 mb 0.11 in2.8 mm 0.24 in/hr6.1 mm/hr 0.64 in16.3 mm
10:15 PM 45.0°F7.2°C 43.9°F6.6°C 96% 5.0 mph SSW8.0 kmh SSW 13.0 mph20.9 kmh 29.55 in1000.7 mb 0.11 in2.8 mm 0.00 in/hr0.0 mm/hr 0.65 in16.5 mm
10:20 PM 45.0°F7.2°C 43.9°F6.6°C 96% 5.0 mph SSW8.0 kmh SSW 13.0 mph20.9 kmh 29.55 in1000.7 mb 0.12 in3.0 mm 0.12 in/hr3.0 mm/hr 0.66 in16.8 mm
10:25 PM 45.0°F7.2°C 43.9°F6.6°C 96% 6.0 mph SSW9.7 kmh SSW 14.0 mph22.5 kmh 29.55 in1000.7 mb 0.11 in2.8 mm 0.00 in/hr0.0 mm/hr 0.66 in16.8 mm
10:30 PM 45.0°F7.2°C 43.9°F6.6°C 96% 6.0 mph SW9.7 kmh SW 14.0 mph22.5 kmh 29.55 in1000.7 mb 0.12 in3.0 mm 0.12 in/hr3.0 mm/hr 0.68 in17.3 mm
10:35 PM 45.0°F7.2°C 43.9°F6.6°C 96% 6.0 mph SW9.7 kmh SW 16.0 mph25.7 kmh 29.55 in1000.7 mb 0.12 in3.0 mm 0.00 in/hr0.0 mm/hr 0.69 in17.5 mm
10:40 PM 45.0°F7.2°C 43.9°F6.6°C 96% 5.0 mph SW8.0 kmh SW 16.0 mph25.7 kmh 29.55 in1000.7 mb 0.11 in2.8 mm 0.00 in/hr0.0 mm/hr 0.69 in17.5 mm
10:45 PM 45.0°F7.2°C 43.9°F6.6°C 96% 5.0 mph SW8.0 kmh SW 14.0 mph22.5 kmh 29.55 in1000.7 mb 0.11 in2.8 mm 0.00 in/hr0.0 mm/hr 0.70 in17.8 mm
10:50 PM 45.0°F7.2°C 43.9°F6.6°C 96% 6.0 mph SSW9.7 kmh SSW 17.0 mph27.4 kmh 29.55 in1000.7 mb 0.10 in2.5 mm 0.00 in/hr0.0 mm/hr 0.70 in17.8 mm
10:55 PM 45.1°F7.3°C 44.0°F6.7°C 96% 6.0 mph SSW9.7 kmh SSW 17.0 mph27.4 kmh 29.55 in1000.7 mb 0.10 in2.5 mm 0.00 in/hr0.0 mm/hr 0.71 in18.0 mm
11:00 PM 45.1°F7.3°C 44.0°F6.7°C 96% 5.0 mph SW8.0 kmh SW 15.0 mph24.1 kmh 29.55 in1000.7 mb 0.10 in2.5 mm 0.00 in/hr0.0 mm/hr 0.33 in8.4 mm
11:05 PM 45.1°F7.3°C 44.0°F6.7°C 96% 6.0 mph SSW9.7 kmh SSW 18.0 mph29.0 kmh 29.55 in1000.7 mb 0.10 in2.5 mm 0.00 in/hr0.0 mm/hr 0.01 in0.3 mm
11:10 PM 45.2°F7.3°C 44.4°F6.9°C 97% 6.0 mph SSW9.7 kmh SSW 18.0 mph29.0 kmh 29.55 in1000.7 mb 0.11 in2.8 mm 0.12 in/hr3.0 mm/hr 0.03 in0.8 mm
11:15 PM 45.2°F7.3°C 44.4°F6.9°C 97% 7.0 mph SW11.3 kmh SW 23.0 mph37.0 kmh 29.55 in1000.7 mb 0.11 in2.8 mm 0.00 in/hr0.0 mm/hr 0.04 in1.0 mm
11:20 PM 45.2°F7.3°C 44.4°F6.9°C 97% 9.0 mph SSW14.5 kmh SSW 23.0 mph37.0 kmh 29.55 in1000.7 mb 0.12 in3.0 mm 0.12 in/hr3.0 mm/hr 0.06 in1.5 mm
11:25 PM 45.2°F7.3°C 44.4°F6.9°C 97% 10.0 mph SSW16.1 kmh SSW 20.0 mph32.2 kmh 29.55 in1000.7 mb 0.13 in3.3 mm 0.12 in/hr3.0 mm/hr 0.08 in2.0 mm
11:30 PM 45.2°F7.3°C 44.4°F6.9°C 97% 9.0 mph SSW14.5 kmh SSW 21.0 mph33.8 kmh 29.55 in1000.7 mb 0.14 in3.6 mm 0.12 in/hr3.0 mm/hr 0.10 in2.5 mm
11:35 PM 45.3°F7.4°C 44.5°F6.9°C 97% 9.0 mph SSW14.5 kmh SSW 21.0 mph33.8 kmh 29.54 in1000.3 mb 0.14 in3.6 mm 0.00 in/hr0.0 mm/hr 0.11 in2.8 mm
11:40 PM 45.3°F7.4°C 44.5°F6.9°C 97% 8.0 mph SSW12.9 kmh SSW 20.0 mph32.2 kmh 29.54 in1000.3 mb 0.15 in3.8 mm 0.12 in/hr3.0 mm/hr 0.12 in3.0 mm
11:45 PM 45.3°F7.4°C 44.5°F6.9°C 97% 7.0 mph SSW11.3 kmh SSW 19.0 mph30.6 kmh 29.55 in1000.7 mb 0.15 in3.8 mm 0.00 in/hr0.0 mm/hr 0.13 in3.3 mm
11:50 PM 45.3°F7.4°C 44.5°F6.9°C 97% 7.0 mph SSW11.3 kmh SSW 17.0 mph27.4 kmh 29.55 in1000.7 mb 0.15 in3.8 mm 0.00 in/hr0.0 mm/hr 0.14 in3.6 mm
11:55 PM 45.3°F7.4°C 44.5°F6.9°C 97% 7.0 mph SSW11.3 kmh SSW 17.0 mph27.4 kmh 29.55 in1000.7 mb 0.16 in4.1 mm 0.12 in/hr3.0 mm/hr 0.15 in3.8 mm